Time;durP1;ratioP1;P1;durP2;ratioP2;P2;SDS_P1;SDS_P2;PMS_P1;PMS_P2;Temp;Humidity;BMP_temperature;BMP_pressure;BME280_temperature;BME280_humidity;BME280_pressure;Samples;Min_cycle;Max_cycle;Signal;HPM_P1;HPM_P2
2021/09/18 00:00:30;;;;;;;3.22;3.13;;;19.30;68.10;;;;;;5063230;27;20411;-86
2021/09/18 00:02:56;;;;;;;3.25;3.15;;;19.20;68.10;;;;;;5048423;28;20033;-86
2021/09/18 00:05:22;;;;;;;3.20;3.10;;;19.20;68.30;;;;;;5051433;28;20383;-85
2021/09/18 00:07:48;;;;;;;3.10;3.00;;;19.00;68.40;;;;;;5053723;28;20025;-86
2021/09/18 00:10:14;;;;;;;3.30;3.20;;;19.00;68.70;;;;;;5049114;28;20040;-85
2021/09/18 00:12:40;;;;;;;3.90;3.60;;;18.90;68.70;;;;;;5048521;28;20029;-85
2021/09/18 00:15:07;;;;;;;3.42;3.28;;;19.00;68.80;;;;;;5074607;28;20088;-85
2021/09/18 00:17:33;;;;;;;3.80;3.60;;;19.00;68.70;;;;;;5058882;28;20390;-86
2021/09/18 00:20:01;;;;;;;3.42;3.33;;;19.00;68.70;;;;;;5048154;28;20032;-84
2021/09/18 00:22:27;;;;;;;8.90;3.65;;;19.00;68.70;;;;;;5048610;28;20510;-85
2021/09/18 00:24:53;;;;;;;3.45;3.25;;;19.00;68.70;;;;;;5053782;28;20028;-85
2021/09/18 00:27:19;;;;;;;3.38;3.28;;;19.00;68.80;;;;;;5053124;28;20494;-85
2021/09/18 00:29:45;;;;;;;3.70;3.50;;;19.00;68.80;;;;;;5053857;28;20040;-85
2021/09/18 00:32:11;;;;;;;3.28;3.17;;;19.00;68.80;;;;;;5056099;28;20045;-86
2021/09/18 00:34:37;;;;;;;3.38;3.28;;;19.00;68.80;;;;;;5054308;28;20483;-85
2021/09/18 00:37:04;;;;;;;3.65;3.45;;;19.00;68.70;;;;;;5052710;28;20025;-85
2021/09/18 00:39:30;;;;;;;3.58;3.40;;;19.00;68.80;;;;;;5055274;28;20021;-85
2021/09/18 00:41:56;;;;;;;3.47;3.28;;;19.00;68.80;;;;;;5052946;28;20044;-85
2021/09/18 00:44:22;;;;;;;3.55;3.40;;;19.00;68.80;;;;;;5055417;28;20028;-85
2021/09/18 00:46:52;;;;;;;3.38;3.28;;;19.00;68.90;;;;;;5056945;28;20063;-85
2021/09/18 00:49:19;;;;;;;3.28;3.17;;;19.00;69.00;;;;;;5057747;28;20028;-85
2021/09/18 00:51:45;;;;;;;4.05;3.85;;;18.90;69.00;;;;;;5050670;28;20044;-85
2021/09/18 00:54:12;;;;;;;3.72;3.53;;;18.90;69.00;;;;;;5061759;28;20037;-85
2021/09/18 00:56:39;;;;;;;3.20;3.10;;;18.90;69.10;;;;;;5037082;28;20044;-83
2021/09/18 00:59:05;;;;;;;3.35;3.25;;;18.90;69.10;;;;;;5058801;28;20024;-85
2021/09/18 01:01:31;;;;;;;3.67;3.47;;;18.80;69.00;;;;;;5052529;28;20041;-85
2021/09/18 01:03:59;;;;;;;3.53;3.33;;;18.80;69.20;;;;;;5053182;28;20410;-85
2021/09/18 01:06:26;;;;;;;3.53;3.33;;;18.80;69.30;;;;;;5059335;28;20479;-85
2021/09/18 01:08:53;;;;;;;3.35;3.17;;;18.80;69.30;;;;;;5052904;28;20494;-85
2021/09/18 01:11:19;;;;;;;3.67;3.47;;;18.80;69.30;;;;;;5052438;28;20057;-84
2021/09/18 01:13:45;;;;;;;3.22;3.13;;;18.80;69.40;;;;;;5052589;28;20387;-85
2021/09/18 01:16:11;;;;;;;3.50;3.40;;;18.80;69.50;;;;;;5050312;28;20033;-85
2021/09/18 01:18:38;;;;;;;3.47;3.38;;;18.70;69.40;;;;;;5078086;28;20041;-85
2021/09/18 01:21:04;;;;;;;3.33;3.22;;;18.70;69.50;;;;;;5055170;28;20045;-85
2021/09/18 01:23:30;;;;;;;3.30;3.20;;;18.70;69.50;;;;;;5059623;28;20028;-85
2021/09/18 01:25:56;;;;;;;3.55;3.35;;;18.70;69.60;;;;;;5050003;28;20037;-85
2021/09/18 01:28:25;;;;;;;3.25;3.15;;;18.60;69.60;;;;;;5052407;28;20048;-85
2021/09/18 01:30:52;;;;;;;3.40;3.30;;;18.60;69.60;;;;;;5050711;28;20036;-85
2021/09/18 01:33:18;;;;;;;3.42;3.33;;;18.60;69.60;;;;;;5049319;28;20049;-84
2021/09/18 01:35:44;;;;;;;3.30;3.20;;;18.60;69.70;;;;;;5054181;28;20032;-85
2021/09/18 01:38:10;;;;;;;3.58;3.40;;;18.50;69.60;;;;;;5051477;28;20036;-85
2021/09/18 01:40:39;;;;;;;3.70;3.50;;;18.60;69.80;;;;;;5050956;28;20495;-84
2021/09/18 01:43:05;;;;;;;3.47;3.38;;;18.60;69.80;;;;;;5050586;28;20053;-85
2021/09/18 01:45:32;;;;;;;3.50;3.30;;;18.50;69.70;;;;;;5048894;28;20040;-85
2021/09/18 01:48:01;;;;;;;3.17;3.08;;;18.60;69.80;;;;;;5051814;28;20037;-85
2021/09/18 01:50:33;;;;;;;3.47;3.33;;;18.50;69.70;;;;;;5051313;28;20048;-85
2021/09/18 01:53:02;;;;;;;3.17;3.08;;;18.50;69.70;;;;;;5047350;28;20052;-85
2021/09/18 01:55:28;;;;;;;3.65;3.45;;;18.50;69.80;;;;;;5047804;28;20494;-85
2021/09/18 01:57:55;;;;;;;3.30;3.20;;;18.50;69.80;;;;;;5067280;28;20030;-86
2021/09/18 02:00:22;;;;;;;3.38;3.28;;;18.50;69.90;;;;;;5052525;28;20040;-85
2021/09/18 02:02:48;;;;;;;3.15;3.05;;;18.60;69.90;;;;;;5047551;28;20033;-85
2021/09/18 02:05:16;;;;;;;2.75;2.65;;;18.50;69.80;;;;;;5048114;28;20036;-85
2021/09/18 02:07:42;;;;;;;2.95;2.85;;;18.50;69.80;;;;;;5043916;28;20025;-85
2021/09/18 02:10:10;;;;;;;3.55;3.35;;;18.50;69.80;;;;;;5041600;28;20038;-85
2021/09/18 02:12:36;;;;;;;3.70;3.40;;;18.50;69.80;;;;;;5040924;28;20029;-85
2021/09/18 02:15:04;;;;;;;3.22;3.13;;;18.60;69.90;;;;;;5030006;27;20032;-85
2021/09/18 02:17:30;;;;;;;3.22;3.10;;;18.50;69.90;;;;;;5054596;28;20368;-85
2021/09/18 02:19:56;;;;;;;3.10;3.00;;;18.50;70.00;;;;;;5048864;28;20033;-86
2021/09/18 02:22:22;;;;;;;3.13;3.03;;;18.50;70.00;;;;;;5049798;28;20017;-86
2021/09/18 02:24:48;;;;;;;2.85;2.75;;;18.50;70.00;;;;;;5046416;28;20031;-85
2021/09/18 02:27:14;;;;;;;2.88;2.78;;;18.50;70.00;;;;;;5039091;28;20037;-85
2021/09/18 02:29:40;;;;;;;3.13;3.03;;;18.50;70.00;;;;;;5034358;28;20045;-85
2021/09/18 02:32:06;;;;;;;3.50;3.30;;;18.50;70.10;;;;;;5040822;28;20056;-85
2021/09/18 02:34:33;;;;;;;3.00;2.90;;;18.50;70.00;;;;;;5041663;28;20029;-85
2021/09/18 02:36:59;;;;;;;2.90;2.80;;;18.50;70.00;;;;;;5046233;28;20048;-86
2021/09/18 02:39:25;;;;;;;3.03;2.92;;;18.50;70.00;;;;;;5049664;28;20033;-86
2021/09/18 02:41:51;;;;;;;3.05;2.95;;;18.50;70.00;;;;;;5050287;28;20028;-86
2021/09/18 02:44:17;;;;;;;3.10;3.00;;;18.60;70.10;;;;;;5050300;28;20164;-86
2021/09/18 02:46:43;;;;;;;3.00;2.90;;;18.60;70.00;;;;;;5051644;28;20479;-86
2021/09/18 02:49:09;;;;;;;2.90;2.80;;;18.60;70.00;;;;;;5048363;28;20032;-86
2021/09/18 02:51:35;;;;;;;3.10;3.00;;;18.60;70.00;;;;;;5050392;28;20483;-86
2021/09/18 02:54:02;;;;;;;3.03;2.83;;;18.60;70.00;;;;;;5065391;28;20394;-86
2021/09/18 02:56:29;;;;;;;3.08;2.97;;;18.60;70.10;;;;;;5051949;28;20045;-86
2021/09/18 02:58:55;;;;;;;3.05;2.95;;;18.60;70.10;;;;;;5049174;28;20024;-85
2021/09/18 03:01:21;;;;;;;3.08;2.97;;;18.60;70.10;;;;;;5047490;28;20029;-86
2021/09/18 03:03:47;;;;;;;3.78;3.47;;;18.60;70.20;;;;;;5047717;28;20035;-85
2021/09/18 03:06:13;;;;;;;2.88;2.78;;;18.50;70.20;;;;;;5036178;28;20032;-85
2021/09/18 03:08:39;;;;;;;3.10;3.00;;;18.50;70.30;;;;;;5066161;28;20054;-84
2021/09/18 03:11:05;;;;;;;3.80;3.60;;;18.40;70.40;;;;;;5085545;28;20044;-85
2021/09/18 03:13:32;;;;;;;3.20;3.10;;;18.30;70.50;;;;;;5049040;28;20029;-85
2021/09/18 03:15:58;;;;;;;3.00;2.90;;;18.30;70.70;;;;;;5052169;28;20048;-86
2021/09/18 03:18:24;;;;;;;3.13;3.00;;;18.30;70.80;;;;;;5048804;28;20044;-85
2021/09/18 03:20:50;;;;;;;3.10;3.00;;;18.20;70.70;;;;;;5024772;28;20053;-85
2021/09/18 03:23:16;;;;;;;2.90;2.80;;;18.20;70.80;;;;;;5048191;28;20402;-85
2021/09/18 03:25:43;;;;;;;2.80;2.70;;;18.20;70.80;;;;;;5053216;28;20033;-85
2021/09/18 03:28:09;;;;;;;3.10;3.00;;;18.20;70.80;;;;;;5048931;28;20028;-84
2021/09/18 03:30:36;;;;;;;2.88;2.78;;;18.20;70.80;;;;;;5049139;28;20041;-84
2021/09/18 03:33:02;;;;;;;2.85;2.75;;;18.20;70.80;;;;;;5050352;28;20052;-84
2021/09/18 03:35:28;;;;;;;2.88;2.78;;;18.20;70.90;;;;;;5050498;28;20025;-84
2021/09/18 03:37:55;;;;;;;3.20;3.10;;;18.20;70.90;;;;;;5049660;28;20040;-83
2021/09/18 03:40:21;;;;;;;2.70;2.60;;;18.20;70.80;;;;;;5058220;28;20021;-84
2021/09/18 03:42:47;;;;;;;2.97;2.88;;;18.20;70.80;;;;;;5048571;28;20044;-84
2021/09/18 03:45:13;;;;;;;2.85;2.75;;;18.20;70.80;;;;;;5062424;28;20032;-84
2021/09/18 03:47:39;;;;;;;2.90;2.80;;;18.30;70.90;;;;;;5057276;28;20032;-84
2021/09/18 03:50:06;;;;;;;2.83;2.72;;;18.30;70.90;;;;;;5046019;28;20495;-84
2021/09/18 03:52:32;;;;;;;3.10;3.00;;;18.30;70.80;;;;;;5079717;28;20048;-83
2021/09/18 03:54:58;;;;;;;2.78;2.67;;;18.30;70.80;;;;;;5048198;28;20033;-84
2021/09/18 03:57:25;;;;;;;2.97;2.88;;;18.30;70.80;;;;;;5036517;28;20048;-83
2021/09/18 03:59:51;;;;;;;3.05;2.95;;;18.30;70.80;;;;;;5052528;28;20032;-84
2021/09/18 04:02:17;;;;;;;3.33;3.13;;;18.30;70.80;;;;;;5051562;28;20096;-84
2021/09/18 04:04:43;;;;;;;3.08;2.97;;;18.40;70.80;;;;;;5052068;28;20025;-83
2021/09/18 04:07:09;;;;;;;3.00;2.90;;;18.40;70.80;;;;;;5053451;28;20033;-83
2021/09/18 04:09:35;;;;;;;3.22;3.13;;;18.40;70.80;;;;;;5052438;28;20482;-80
2021/09/18 04:12:02;;;;;;;3.45;3.25;;;18.40;70.80;;;;;;5052216;28;20029;-81
2021/09/18 04:14:28;;;;;;;3.20;3.10;;;18.40;70.80;;;;;;5054408;28;20581;-82
2021/09/18 04:16:54;;;;;;;3.00;2.90;;;18.40;70.80;;;;;;5035637;28;20048;-79
2021/09/18 04:19:20;;;;;;;3.03;2.92;;;18.30;70.90;;;;;;5050670;28;20463;-80
2021/09/18 04:21:46;;;;;;;3.20;3.10;;;18.30;70.90;;;;;;5051004;28;20040;-80
2021/09/18 04:24:13;;;;;;;3.00;2.90;;;18.30;71.00;;;;;;5052914;28;20386;-80
2021/09/18 04:26:39;;;;;;;3.05;2.95;;;18.30;71.10;;;;;;5054384;28;20032;-81
2021/09/18 04:29:05;;;;;;;3.00;2.90;;;18.20;71.10;;;;;;5053081;28;20364;-85
2021/09/18 04:31:31;;;;;;;2.90;2.80;;;18.20;71.20;;;;;;5052166;28;20406;-82
2021/09/18 04:33:57;;;;;;;3.00;2.90;;;18.20;71.20;;;;;;5052142;28;20045;-82
2021/09/18 04:36:23;;;;;;;3.05;2.95;;;18.30;71.20;;;;;;5053221;28;20040;-83
2021/09/18 04:38:49;;;;;;;2.80;2.70;;;18.30;71.10;;;;;;5052165;28;20029;-82
2021/09/18 04:41:16;;;;;;;3.33;3.13;;;18.30;71.10;;;;;;5054467;28;20040;-82
2021/09/18 04:43:43;;;;;;;3.10;3.00;;;18.30;71.10;;;;;;5050626;28;20033;-80
2021/09/18 04:46:09;;;;;;;3.00;2.90;;;18.30;71.10;;;;;;5053469;28;20040;-82
2021/09/18 04:48:35;;;;;;;3.08;2.97;;;18.30;71.10;;;;;;5053979;28;20025;-79
2021/09/18 04:51:01;;;;;;;3.00;2.90;;;18.30;71.20;;;;;;5052889;28;20518;-80
2021/09/18 04:53:27;;;;;;;3.15;3.05;;;18.30;71.10;;;;;;5054713;28;20025;-82
2021/09/18 04:55:53;;;;;;;2.92;2.83;;;18.30;71.10;;;;;;5051596;28;20025;-79
2021/09/18 04:58:19;;;;;;;3.10;3.00;;;18.30;71.20;;;;;;5051985;28;20048;-78
2021/09/18 05:00:45;;;;;;;3.05;2.95;;;18.30;71.20;;;;;;5051144;28;20041;-80
2021/09/18 05:03:11;;;;;;;3.47;3.33;;;18.30;71.20;;;;;;5052092;28;20029;-80
2021/09/18 05:05:37;;;;;;;3.53;3.33;;;18.30;71.20;;;;;;5053294;28;20041;-83
2021/09/18 05:08:05;;;;;;;3.20;3.10;;;18.30;71.20;;;;;;5052079;28;20037;-81
2021/09/18 05:10:31;;;;;;;3.20;3.10;;;18.30;71.30;;;;;;5053147;28;20399;-81
2021/09/18 05:12:57;;;;;;;3.25;3.15;;;18.30;71.30;;;;;;5050692;28;20116;-78
2021/09/18 05:15:24;;;;;;;3.20;3.10;;;18.30;71.30;;;;;;5052529;28;20059;-83
2021/09/18 05:17:50;;;;;;;3.13;3.03;;;18.30;71.40;;;;;;5052593;28;20383;-79
2021/09/18 05:20:16;;;;;;;3.15;3.03;;;18.30;71.40;;;;;;5054024;28;20029;-87
2021/09/18 05:22:42;;;;;;;3.22;3.03;;;18.30;71.40;;;;;;5051330;28;20041;-82
2021/09/18 05:25:09;;;;;;;3.03;2.92;;;18.20;71.50;;;;;;5052720;28;20414;-81
2021/09/18 05:27:35;;;;;;;2.90;2.80;;;18.20;71.50;;;;;;5050505;28;20032;-81
2021/09/18 05:30:01;;;;;;;3.22;3.10;;;18.20;71.60;;;;;;5050829;28;20041;-82
2021/09/18 05:32:27;;;;;;;2.90;2.80;;;18.20;71.60;;;;;;5051534;28;20060;-87
2021/09/18 05:34:53;;;;;;;2.95;2.85;;;18.20;71.60;;;;;;5051715;28;20032;-85
2021/09/18 05:37:19;;;;;;;3.20;3.10;;;18.20;71.60;;;;;;5051727;28;20040;-80
2021/09/18 05:39:45;;;;;;;2.92;2.83;;;18.20;71.60;;;;;;5050186;28;20590;-82
2021/09/18 05:42:12;;;;;;;3.17;3.08;;;18.20;71.60;;;;;;5051322;28;20037;-83
2021/09/18 05:44:38;;;;;;;3.00;2.90;;;18.20;71.60;;;;;;5053570;28;20387;-83
2021/09/18 05:47:04;;;;;;;2.92;2.83;;;18.20;71.60;;;;;;5051718;28;20040;-79
2021/09/18 05:49:30;;;;;;;2.92;2.83;;;18.20;71.60;;;;;;5067531;28;20419;-82
2021/09/18 05:51:57;;;;;;;3.28;3.17;;;18.20;71.60;;;;;;5050448;28;20047;-79
2021/09/18 05:54:23;;;;;;;3.25;3.15;;;18.30;71.60;;;;;;5067361;28;20029;-80
2021/09/18 05:56:49;;;;;;;3.63;3.40;;;18.20;71.60;;;;;;5051921;28;20033;-79
2021/09/18 05:59:15;;;;;;;2.80;2.70;;;18.30;71.60;;;;;;5052954;28;20025;-80
2021/09/18 06:01:41;;;;;;;3.40;3.20;;;18.30;71.60;;;;;;5016598;28;20534;-80
2021/09/18 06:04:07;;;;;;;3.45;3.28;;;18.30;71.60;;;;;;5051114;28;20032;-80
2021/09/18 06:06:33;;;;;;;3.40;3.20;;;18.30;71.70;;;;;;5050187;28;20055;-79
2021/09/18 06:09:00;;;;;;;2.88;2.78;;;18.20;71.70;;;;;;5051013;28;20037;-79
2021/09/18 06:11:26;;;;;;;2.88;2.78;;;18.20;71.70;;;;;;5051316;28;20040;-79
2021/09/18 06:13:53;;;;;;;2.75;2.65;;;18.20;71.70;;;;;;5049944;28;20032;-79
2021/09/18 06:16:19;;;;;;;3.15;2.95;;;18.30;71.80;;;;;;5049755;28;20045;-85
2021/09/18 06:18:45;;;;;;;2.95;2.85;;;18.30;71.80;;;;;;5050110;28;20040;-86
2021/09/18 06:21:11;;;;;;;2.70;2.60;;;18.30;71.70;;;;;;5050766;28;20025;-82
2021/09/18 06:23:37;;;;;;;3.03;2.90;;;18.40;71.60;;;;;;5052353;28;20037;-84
2021/09/18 06:26:04;;;;;;;3.25;3.13;;;18.50;71.60;;;;;;5049328;28;20403;-83
2021/09/18 06:28:30;;;;;;;3.00;2.90;;;18.60;71.50;;;;;;5050157;28;20032;-84
2021/09/18 06:30:57;;;;;;;4.15;3.78;;;18.60;71.40;;;;;;5045805;28;20037;-82
2021/09/18 06:33:23;;;;;;;3.47;3.28;;;18.70;71.30;;;;;;5034124;28;20049;-85
2021/09/18 06:35:49;;;;;;;3.35;3.20;;;18.80;71.30;;;;;;5051406;28;20028;-93
2021/09/18 06:38:21;;;;;;;3.60;3.40;;;18.80;71.20;;;;;;5052000;28;20048;-84
2021/09/18 06:40:51;;;;;;;3.20;3.00;;;18.90;71.20;;;;;;5050063;28;20029;-90
2021/09/18 06:43:17;;;;;;;4.15;3.95;;;18.90;71.50;;;;;;5034099;28;20032;-82
2021/09/18 06:45:43;;;;;;;3.25;3.15;;;19.00;71.10;;;;;;5049881;28;20036;-83
2021/09/18 06:48:10;;;;;;;3.75;3.55;;;19.00;71.10;;;;;;5050882;28;20025;-83
2021/09/18 06:50:38;;;;;;;3.38;3.22;;;18.90;71.10;;;;;;5052920;28;20029;-83
2021/09/18 06:53:05;;;;;;;3.90;3.30;;;18.90;71.20;;;;;;5051380;28;20048;-83
2021/09/18 06:55:31;;;;;;;3.67;3.47;;;18.80;71.30;;;;;;5049262;28;20025;-83
2021/09/18 06:57:57;;;;;;;3.22;3.13;;;18.80;71.50;;;;;;5048171;28;20033;-83
2021/09/18 07:00:23;;;;;;;3.63;3.42;;;18.80;71.60;;;;;;5050911;28;20029;-83
2021/09/18 07:02:49;;;;;;;3.15;3.05;;;18.80;71.70;;;;;;5051795;28;20037;-83
2021/09/18 07:05:16;;;;;;;3.30;3.20;;;18.70;71.70;;;;;;5052367;28;20372;-83
2021/09/18 07:07:42;;;;;;;3.50;3.30;;;18.70;71.70;;;;;;5050695;28;20021;-83
2021/09/18 07:10:08;;;;;;;3.53;3.33;;;18.70;71.80;;;;;;5048884;28;20029;-83
2021/09/18 07:12:34;;;;;;;3.10;2.95;;;18.70;71.90;;;;;;5050703;28;20045;-83
2021/09/18 07:15:00;;;;;;;2.90;2.80;;;18.70;71.90;;;;;;5050575;28;20748;-83
2021/09/18 07:17:26;;;;;;;3.60;3.40;;;18.70;71.90;;;;;;5052064;28;20044;-83
2021/09/18 07:19:52;;;;;;;3.55;3.33;;;18.70;71.90;;;;;;5049203;28;20483;-83
2021/09/18 07:22:18;;;;;;;4.93;3.28;;;18.70;71.90;;;;;;5050397;28;20035;-83
2021/09/18 07:24:45;;;;;;;3.13;2.92;;;18.70;71.90;;;;;;5049025;28;20476;-83
2021/09/18 07:27:11;;;;;;;3.03;2.92;;;18.80;71.90;;;;;;5049269;28;20093;-83
2021/09/18 07:29:37;;;;;;;3.20;3.10;;;18.80;71.90;;;;;;5052413;28;20514;-83
2021/09/18 07:32:03;;;;;;;3.40;3.20;;;18.80;71.80;;;;;;5046755;28;20044;-83
2021/09/18 07:34:29;;;;;;;3.00;2.90;;;18.80;71.90;;;;;;5049000;28;20044;-83
2021/09/18 07:36:55;;;;;;;3.28;3.17;;;18.80;71.90;;;;;;5047591;28;20044;-84
2021/09/18 07:39:22;;;;;;;3.25;3.15;;;18.80;71.90;;;;;;5048852;28;20029;-83
2021/09/18 07:41:48;;;;;;;3.05;2.95;;;18.90;72.00;;;;;;5051669;28;20044;-83
2021/09/18 07:44:14;;;;;;;3.38;3.17;;;18.90;71.90;;;;;;5050328;28;20025;-83
2021/09/18 07:46:40;;;;;;;3.45;3.35;;;18.90;71.90;;;;;;5049747;28;20055;-83
2021/09/18 07:49:06;;;;;;;3.08;2.97;;;19.00;71.90;;;;;;5033669;28;20025;-83
2021/09/18 07:51:32;;;;;;;3.50;3.30;;;19.00;71.80;;;;;;5050059;28;20033;-83
2021/09/18 07:53:58;;;;;;;3.13;2.92;;;19.10;71.90;;;;;;5049938;28;20517;-83
2021/09/18 07:56:24;;;;;;;3.85;3.65;;;19.00;71.70;;;;;;5050864;28;20040;-83
2021/09/18 07:58:54;;;;;;;3.67;3.47;;;19.10;71.70;;;;;;5048835;28;20031;-83
2021/09/18 08:01:20;;;;;;;3.70;3.50;;;19.10;71.60;;;;;;5048323;28;20044;-82
2021/09/18 08:03:46;;;;;;;3.55;3.35;;;19.20;71.60;;;;;;5050188;28;20032;-84
2021/09/18 08:06:13;;;;;;;3.60;3.40;;;19.30;71.60;;;;;;5048932;28;20048;-83
2021/09/18 08:08:39;;;;;;;3.60;3.42;;;19.40;71.40;;;;;;5050175;28;20033;-84
2021/09/18 08:11:05;;;;;;;4.00;3.70;;;19.50;71.30;;;;;;5049655;28;20040;-84
2021/09/18 08:13:31;;;;;;;4.30;4.03;;;19.60;71.20;;;;;;5033527;28;20033;-84
2021/09/18 08:15:57;;;;;;;3.83;3.63;;;19.60;71.10;;;;;;5048115;28;20037;-84
2021/09/18 08:18:23;;;;;;;3.97;3.78;;;19.70;71.10;;;;;;5049960;28;20034;-84
2021/09/18 08:20:49;;;;;;;3.85;3.65;;;19.70;71.00;;;;;;5049195;28;20025;-84
2021/09/18 08:23:16;;;;;;;3.85;3.65;;;19.80;71.10;;;;;;5051145;28;20025;-84
2021/09/18 08:25:42;;;;;;;4.10;3.90;;;19.80;71.10;;;;;;5065431;28;20041;-83
2021/09/18 08:28:08;;;;;;;4.00;3.80;;;19.80;71.10;;;;;;5047223;28;20058;-84
2021/09/18 08:30:35;;;;;;;3.90;3.70;;;19.80;71.10;;;;;;5048155;28;20032;-84
2021/09/18 08:33:01;;;;;;;4.10;3.80;;;19.80;71.10;;;;;;5048537;28;20053;-84
2021/09/18 08:35:27;;;;;;;3.70;3.50;;;19.80;71.10;;;;;;5051489;28;20029;-84
2021/09/18 08:37:53;;;;;;;4.07;3.88;;;19.80;71.10;;;;;;5049767;28;20028;-83
2021/09/18 08:40:19;;;;;;;4.10;3.90;;;19.90;71.10;;;;;;5049620;28;20029;-84
2021/09/18 08:42:45;;;;;;;12.48;3.80;;;20.00;71.00;;;;;;5048805;28;20036;-84
2021/09/18 08:45:13;;;;;;;6.85;4.10;;;20.00;70.90;;;;;;5051908;28;20026;-84
2021/09/18 08:47:43;;;;;;;4.07;3.88;;;20.10;70.90;;;;;;5053848;28;20051;-84
2021/09/18 08:50:16;;;;;;;4.18;3.97;;;20.00;70.90;;;;;;5053244;28;20036;-84
2021/09/18 08:52:42;;;;;;;4.45;4.25;;;20.00;71.00;;;;;;5053157;28;20470;-83
2021/09/18 08:55:08;;;;;;;4.13;3.92;;;20.00;71.10;;;;;;5050461;28;20029;-83
2021/09/18 08:57:34;;;;;;;3.83;3.63;;;19.90;71.20;;;;;;5053278;28;20040;-83
2021/09/18 09:00:00;;;;;;;3.67;3.47;;;19.90;71.20;;;;;;5051962;28;20375;-83
2021/09/18 09:02:30;;;;;;;3.72;3.53;;;20.00;71.20;;;;;;5054677;28;20029;-83
2021/09/18 09:05:07;;;;;;;4.03;3.83;;;20.00;71.20;;;;;;5052591;28;20029;-84
2021/09/18 09:07:33;;;;;;;3.80;3.60;;;20.00;71.30;;;;;;5050303;28;20029;-84
2021/09/18 09:10:02;;;;;;;3.90;3.70;;;20.00;71.20;;;;;;5052908;28;20395;-84
2021/09/18 09:12:31;;;;;;;4.30;4.00;;;20.00;71.20;;;;;;5052843;28;20522;-84
2021/09/18 09:14:58;;;;;;;3.60;3.40;;;20.10;71.20;;;;;;5052856;28;20040;-84
2021/09/18 09:17:26;;;;;;;4.10;3.90;;;20.10;71.10;;;;;;5054218;28;20029;-83
2021/09/18 09:19:53;;;;;;;4.55;4.35;;;20.20;71.10;;;;;;5051101;28;20017;-83
2021/09/18 09:22:46;;;;;;;3.75;3.55;;;20.20;71.00;;;;;;5051361;28;20048;-84
2021/09/18 09:25:28;;;;;;;4.07;3.88;;;20.20;71.10;;;;;;5053286;28;20048;-84
2021/09/18 09:27:54;;;;;;;4.35;4.15;;;20.20;70.90;;;;;;5052521;28;20502;-84
2021/09/18 09:30:32;;;;;;;4.85;4.55;;;20.30;70.80;;;;;;5050807;28;20073;-83
2021/09/18 09:33:06;;;;;;;4.50;4.30;;;20.30;70.80;;;;;;5052188;28;20056;-83
2021/09/18 09:35:32;;;;;;;4.65;4.40;;;20.40;70.80;;;;;;5052570;28;20021;-84
2021/09/18 09:37:58;;;;;;;4.28;4.07;;;20.40;70.70;;;;;;5051203;28;20044;-84
2021/09/18 09:40:30;;;;;;;4.65;4.45;;;20.40;70.70;;;;;;5052218;28;20029;-83
2021/09/18 09:42:57;;;;;;;4.00;3.80;;;20.50;70.70;;;;;;5052162;28;20033;-83
2021/09/18 09:45:23;;;;;;;4.00;3.80;;;20.50;70.60;;;;;;5050368;28;20037;-83
2021/09/18 09:48:05;;;;;;;4.65;4.45;;;20.50;70.50;;;;;;5052757;28;20486;-83
2021/09/18 09:50:31;;;;;;;4.32;4.13;;;20.60;70.50;;;;;;5052698;28;20033;-83
2021/09/18 09:52:58;;;;;;;4.28;4.07;;;20.70;70.30;;;;;;5052203;28;20052;-84
2021/09/18 09:55:24;;;;;;;4.38;4.18;;;20.70;70.20;;;;;;5050390;28;20060;-83
2021/09/18 09:58:02;;;;;;;4.50;4.30;;;20.80;70.30;;;;;;5017590;28;20108;-84
2021/09/18 10:00:38;;;;;;;4.43;4.22;;;20.80;70.20;;;;;;5051570;28;20024;-83
2021/09/18 10:03:05;;;;;;;4.43;4.22;;;20.90;70.10;;;;;;5051817;28;20491;-84
2021/09/18 10:05:31;;;;;;;4.70;4.50;;;21.00;69.90;;;;;;5052909;28;20400;-84
2021/09/18 10:07:58;;;;;;;4.20;4.00;;;21.10;69.80;;;;;;5050702;28;20040;-84
2021/09/18 10:10:24;;;;;;;4.60;4.40;;;21.20;69.70;;;;;;5051631;28;20401;-83
2021/09/18 10:12:50;;;;;;;5.68;5.38;;;21.30;69.60;;;;;;5034735;28;20048;-84
2021/09/18 10:15:17;;;;;;;6.68;6.38;;;21.30;69.50;;;;;;5032710;28;20033;-84
2021/09/18 10:17:46;;;;;;;5.38;5.18;;;21.40;69.50;;;;;;5051451;28;20036;-83
2021/09/18 10:25:34;;;;;;;5.13;4.93;;;21.50;69.90;;;;;;5051801;28;20032;-83
2021/09/18 10:28:09;;;;;;;5.03;4.82;;;21.50;69.40;;;;;;5036145;28;20032;-83
2021/09/18 10:30:47;;;;;;;5.88;5.57;;;21.60;69.30;;;;;;5049617;28;20475;-84
2021/09/18 10:33:30;;;;;;;5.68;5.38;;;21.60;69.10;;;;;;5034597;28;20495;-84
2021/09/18 10:35:59;;;;;;;5.07;4.80;;;21.70;69.00;;;;;;5050109;28;20040;-84
2021/09/18 10:38:27;;;;;;;4.68;4.47;;;21.70;68.90;;;;;;5051913;28;20025;-84
2021/09/18 10:41:04;;;;;;;4.80;4.60;;;21.70;68.80;;;;;;5051098;28;20032;-84
2021/09/18 10:43:41;;;;;;;5.43;4.95;;;21.80;68.80;;;;;;5051175;28;20586;-83
2021/09/18 10:46:10;;;;;;;5.50;5.28;;;21.80;68.70;;;;;;5049112;28;20037;-84
2021/09/18 10:48:40;;;;;;;5.13;4.93;;;21.80;68.60;;;;;;5049836;28;20044;-84
2021/09/18 10:51:06;;;;;;;5.10;4.90;;;21.90;68.50;;;;;;5051078;28;20040;-84
2021/09/18 10:54:05;;;;;;;5.80;5.53;;;22.00;68.30;;;;;;5053012;28;20051;-84
2021/09/18 10:56:53;;;;;;;6.22;5.93;;;22.10;68.10;;;;;;5084585;28;20040;-84
2021/09/18 10:59:41;;;;;;;6.32;6.03;;;22.20;67.80;;;;;;5050737;28;20021;-84
2021/09/18 11:02:35;;;;;;;6.90;6.60;;;22.30;67.60;;;;;;5051257;28;20533;-83
2021/09/18 11:05:05;;;;;;;6.25;5.95;;;22.40;67.40;;;;;;5049132;28;20044;-83
2021/09/18 11:07:40;;;;;;;6.63;6.32;;;22.50;67.20;;;;;;5050113;28;20426;-84
2021/09/18 11:10:07;;;;;;;6.20;5.90;;;22.60;67.10;;;;;;5050693;28;20029;-84
2021/09/18 11:12:33;;;;;;;5.90;5.60;;;22.70;66.90;;;;;;5050561;28;20033;-84
2021/09/18 11:15:10;;;;;;;5.70;5.40;;;22.80;66.70;;;;;;5032709;28;20025;-84
2021/09/18 11:17:41;;;;;;;6.25;5.95;;;22.80;66.50;;;;;;5047715;28;20037;-84
2021/09/18 11:20:21;;;;;;;5.57;5.35;;;22.90;66.40;;;;;;5048363;28;20032;-84
2021/09/18 11:22:53;;;;;;;5.95;5.65;;;23.00;66.20;;;;;;5051008;28;20387;-84
2021/09/18 11:25:30;;;;;;;6.25;5.95;;;23.00;66.00;;;;;;5049477;28;20488;-84
2021/09/18 11:28:15;;;;;;;5.78;5.47;;;23.00;65.90;;;;;;5050477;28;20033;-84
2021/09/18 11:30:49;;;;;;;6.22;5.93;;;23.10;65.90;;;;;;5013682;28;20044;-83
2021/09/18 11:33:17;;;;;;;5.93;5.63;;;23.10;65.90;;;;;;5065846;28;20385;-84
2021/09/18 11:36:00;;;;;;;6.13;5.82;;;23.10;65.80;;;;;;5049666;28;20045;-84
2021/09/18 11:38:31;;;;;;;6.00;5.70;;;23.10;65.80;;;;;;5052735;28;20388;-84
2021/09/18 11:41:05;;;;;;;5.38;5.18;;;23.10;65.70;;;;;;5049109;28;20017;-84
2021/09/18 11:43:31;;;;;;;5.82;5.53;;;23.10;65.70;;;;;;5047704;28;20403;-84
2021/09/18 11:45:58;;;;;;;6.18;5.88;;;23.10;65.50;;;;;;5049592;28;20418;-83
2021/09/18 11:48:25;;;;;;;5.50;5.30;;;23.10;65.40;;;;;;5049043;28;20032;-84
2021/09/18 11:50:51;;;;;;;11.05;6.00;;;23.20;65.30;;;;;;5032227;28;20049;-84
2021/09/18 11:53:18;;;;;;;5.70;5.40;;;23.20;65.10;;;;;;5052247;28;20430;-84
2021/09/18 11:55:46;;;;;;;6.00;5.70;;;23.20;64.90;;;;;;5050102;28;20470;-83
2021/09/18 11:58:29;;;;;;;6.03;5.72;;;23.30;64.80;;;;;;5048988;28;20032;-84
2021/09/18 12:01:02;;;;;;;5.70;5.40;;;23.20;64.70;;;;;;5049698;28;20395;-84
2021/09/18 12:03:38;;;;;;;5.88;5.57;;;23.20;64.70;;;;;;5049011;28;20361;-84
2021/09/18 12:06:14;;;;;;;5.70;5.40;;;23.20;64.70;;;;;;5050219;28;20038;-84
2021/09/18 12:08:42;;;;;;;5.32;5.10;;;23.10;64.80;;;;;;5047532;28;20471;-83
2021/09/18 12:11:08;;;;;;;5.43;5.18;;;23.00;64.90;;;;;;5050341;28;20025;-84
2021/09/18 12:13:38;;;;;;;5.20;5.00;;;22.90;65.00;;;;;;5049581;28;20509;-85
2021/09/18 12:16:05;;;;;;;5.05;4.85;;;22.90;65.10;;;;;;5048345;28;20104;-84
2021/09/18 12:18:42;;;;;;;4.65;4.45;;;22.80;65.00;;;;;;5052028;28;20025;-84
2021/09/18 12:21:16;;;;;;;5.57;5.28;;;22.70;65.00;;;;;;5035559;28;20415;-84
2021/09/18 12:23:46;;;;;;;4.75;4.55;;;22.70;64.90;;;;;;5038334;28;20044;-84
2021/09/18 12:26:13;;;;;;;5.00;4.80;;;22.70;65.00;;;;;;5053861;28;20399;-84
2021/09/18 12:28:39;;;;;;;5.07;4.82;;;22.60;64.90;;;;;;5052222;28;20475;-84
2021/09/18 12:31:16;;;;;;;4.47;4.28;;;22.50;64.80;;;;;;5053062;27;20033;-84
2021/09/18 12:33:43;;;;;;;5.05;4.85;;;22.50;64.80;;;;;;5052212;28;20037;-84
2021/09/18 12:36:11;;;;;;;4.97;4.68;;;22.40;64.80;;;;;;5052546;28;20399;-84
2021/09/18 12:38:37;;;;;;;4.65;4.45;;;22.40;64.80;;;;;;5055588;28;20029;-84
2021/09/18 12:41:05;;;;;;;4.40;4.20;;;22.30;64.80;;;;;;5053753;28;20029;-84
2021/09/18 12:43:31;;;;;;;4.38;4.18;;;22.30;64.80;;;;;;5051878;28;20494;-84
2021/09/18 12:46:04;;;;;;;4.60;4.40;;;22.30;64.80;;;;;;5053461;28;20048;-84
2021/09/18 12:48:30;;;;;;;4.93;4.72;;;22.20;64.80;;;;;;5052011;28;20025;-84
2021/09/18 12:51:11;;;;;;;5.25;5.05;;;22.20;64.80;;;;;;5053713;28;20506;-84
2021/09/18 12:53:48;;;;;;;4.40;4.20;;;22.10;64.80;;;;;;5050024;28;20045;-84
2021/09/18 12:56:17;;;;;;;4.97;4.78;;;22.10;64.90;;;;;;5054603;28;20033;-84